createdAt,value
2022-11-15T00:00:54.521Z,14.70
2022-11-15T00:03:23.603Z,16.45
2022-11-15T00:05:50.467Z,13.23
2022-11-15T00:08:17.135Z,14.70
2022-11-15T00:10:44.037Z,16.38
2022-11-15T00:13:12.769Z,12.77
2022-11-15T00:15:40.633Z,14.45
2022-11-15T00:18:12.726Z,14.35
2022-11-15T00:20:39.189Z,17.60
2022-11-15T00:23:06.100Z,15.18
2022-11-15T00:25:33.496Z,18.35
2022-11-15T00:28:01.492Z,15.18
2022-11-15T00:30:28.854Z,16.30
2022-11-15T00:32:55.725Z,13.85
2022-11-15T00:35:22.853Z,16.67
2022-11-15T00:37:49.433Z,15.13
2022-11-15T00:40:16.584Z,14.57
2022-11-15T00:42:42.994Z,15.38
2022-11-15T00:45:10.183Z,14.65
2022-11-15T00:47:36.715Z,15.75
2022-11-15T00:50:03.455Z,15.13
2022-11-15T00:52:29.810Z,14.18
2022-11-15T00:54:56.169Z,13.73
2022-11-15T00:57:22.595Z,15.45
2022-11-15T00:59:48.924Z,12.93
2022-11-15T01:02:15.282Z,12.82
2022-11-15T01:04:41.767Z,13.10
2022-11-15T01:07:08.277Z,12.48
2022-11-15T01:09:34.743Z,13.50
2022-11-15T01:12:01.171Z,13.27
2022-11-15T01:14:27.553Z,13.25
2022-11-15T01:16:54.319Z,12.27
2022-11-15T01:19:20.777Z,14.30
2022-11-15T01:21:49.965Z,12.10
2022-11-15T01:24:16.640Z,13.82
2022-11-15T01:26:42.986Z,12.48
2022-11-15T01:29:09.300Z,10.85
2022-11-15T01:31:35.725Z,11.80
2022-11-15T01:34:02.129Z,12.45
2022-11-15T01:36:28.484Z,11.50
2022-11-15T01:38:56.178Z,11.95
2022-11-15T01:41:26.168Z,11.48
2022-11-15T01:43:55.669Z,11.57
2022-11-15T01:46:39.243Z,11.43
2022-11-15T01:49:14.052Z,11.32
2022-11-15T01:51:40.746Z,10.15
2022-11-15T01:54:12.465Z,11.23
2022-11-15T01:56:46.435Z,10.15
2022-11-15T01:59:13.513Z,10.50
2022-11-15T02:01:40.023Z,10.23
2022-11-15T02:04:12.592Z,14.10
2022-11-15T02:06:40.618Z,10.40
2022-11-15T02:09:06.985Z,11.25
2022-11-15T02:11:33.758Z,11.65
2022-11-15T02:14:02.177Z,10.93
2022-11-15T02:16:28.439Z,10.82
2022-11-15T02:19:14.359Z,9.13
2022-11-15T02:21:51.137Z,9.38
2022-11-15T02:24:49.563Z,8.82
2022-11-15T02:27:50.818Z,10.93
2022-11-15T02:30:21.438Z,10.90
2022-11-15T02:32:55.582Z,10.73
2022-11-15T02:35:36.658Z,11.07
2022-11-15T02:38:32.178Z,9.75
2022-11-15T02:41:10.214Z,11.30
2022-11-15T02:43:58.133Z,9.32
2022-11-15T02:47:03.301Z,9.02
2022-11-15T02:49:33.153Z,9.60
2022-11-15T02:51:59.514Z,10.80
2022-11-15T02:54:33.102Z,9.55
2022-11-15T02:57:05.386Z,9.82
2022-11-15T02:59:43.940Z,12.05
2022-11-15T03:02:21.097Z,16.70
2022-11-15T03:04:57.133Z,10.88
2022-11-15T03:07:30.261Z,11.07
2022-11-15T03:10:18.792Z,9.70
2022-11-15T03:12:55.416Z,9.20
2022-11-15T03:15:37.337Z,10.48
2022-11-15T03:18:13.746Z,10.55
2022-11-15T03:20:40.947Z,10.32
2022-11-15T03:23:10.042Z,13.98
2022-11-15T03:25:41.551Z,11.10
2022-11-15T03:28:12.600Z,11.15
2022-11-15T03:30:40.832Z,9.88
2022-11-15T03:33:09.143Z,9.05
2022-11-15T03:35:40.106Z,10.38
2022-11-15T03:38:17.708Z,9.45
2022-11-15T03:40:50.178Z,11.18
2022-11-15T03:43:30.793Z,8.75
2022-11-15T03:46:03.139Z,9.75
2022-11-15T03:48:37.166Z,9.35
2022-11-15T03:51:05.073Z,11.18
2022-11-15T03:53:32.983Z,9.18
2022-11-15T03:55:59.603Z,7.15
2022-11-15T03:58:26.127Z,8.50
2022-11-15T04:00:52.595Z,9.13
2022-11-15T04:03:18.970Z,9.00
2022-11-15T04:05:45.306Z,8.18
2022-11-15T04:08:11.633Z,9.23
2022-11-15T04:10:38.121Z,9.13
2022-11-15T04:13:04.513Z,10.43
2022-11-15T04:15:30.929Z,10.60
2022-11-15T04:17:58.109Z,11.10
2022-11-15T04:20:46.101Z,9.75
2022-11-15T04:23:35.660Z,9.63
2022-11-15T04:26:05.217Z,9.32
2022-11-15T04:28:31.856Z,9.20
2022-11-15T04:30:58.314Z,8.98
2022-11-15T04:33:24.698Z,9.15
2022-11-15T04:36:30.295Z,10.18
2022-11-15T04:38:56.729Z,8.25
2022-11-15T04:41:23.073Z,10.63
2022-11-15T04:43:49.403Z,11.82
2022-11-15T04:46:15.755Z,10.88
2022-11-15T04:48:42.153Z,9.05
2022-11-15T04:51:08.523Z,8.85
2022-11-15T04:53:35.157Z,8.32
2022-11-15T04:56:01.575Z,10.32
2022-11-15T04:58:27.925Z,9.68
2022-11-15T05:00:54.479Z,8.45
2022-11-15T05:03:39.279Z,8.75
2022-11-15T05:06:06.370Z,8.25
2022-11-15T05:08:33.108Z,8.50
2022-11-15T05:10:59.490Z,9.15
2022-11-15T05:13:25.865Z,11.05
2022-11-15T05:15:52.205Z,10.65
2022-11-15T05:18:23.335Z,9.20
2022-11-15T05:20:50.220Z,13.02
2022-11-15T05:23:16.559Z,9.02
2022-11-15T05:25:43.005Z,7.63
2022-11-15T05:28:09.387Z,8.43
2022-11-15T05:30:35.737Z,11.27
2022-11-15T05:33:02.556Z,13.50
2022-11-15T05:35:39.654Z,8.90
2022-11-15T05:38:06.185Z,10.20
2022-11-15T05:40:33.506Z,9.32
2022-11-15T05:43:02.387Z,10.35
2022-11-15T05:45:29.711Z,10.40
2022-11-15T05:47:59.542Z,9.18
2022-11-15T05:50:26.609Z,13.32
2022-11-15T05:52:53.090Z,11.25
2022-11-15T05:55:19.566Z,12.45
2022-11-15T05:57:45.947Z,11.15
2022-11-15T06:00:12.980Z,9.45
2022-11-15T06:02:39.363Z,9.82
2022-11-15T06:05:06.213Z,11.02
2022-11-15T06:07:32.739Z,12.00
2022-11-15T06:09:59.114Z,11.85
2022-11-15T06:12:25.484Z,9.10
2022-11-15T06:14:51.831Z,11.45
2022-11-15T06:17:18.151Z,12.27
2022-11-15T06:19:44.480Z,8.80
2022-11-15T06:22:10.861Z,12.63
2022-11-15T06:24:37.222Z,14.32
2022-11-15T06:27:03.678Z,15.40
2022-11-15T06:29:30.025Z,15.05
2022-11-15T06:31:56.369Z,12.80
2022-11-15T06:34:22.837Z,11.85
2022-11-15T06:36:49.269Z,13.25
2022-11-15T06:39:15.692Z,10.77
2022-11-15T06:41:42.069Z,13.50
2022-11-15T06:44:08.408Z,9.93
2022-11-15T06:46:34.795Z,11.05
2022-11-15T06:49:05.195Z,10.68
2022-11-15T06:51:34.652Z,13.75
2022-11-15T06:54:02.184Z,11.40
2022-11-15T06:56:28.722Z,12.18
2022-11-15T06:58:56.210Z,13.20
2022-11-15T07:01:22.612Z,10.80
2022-11-15T07:03:48.972Z,11.65
2022-11-15T07:06:15.403Z,11.02
2022-11-15T07:08:42.689Z,10.23
2022-11-15T07:11:09.927Z,12.90
2022-11-15T07:13:38.013Z,10.93
2022-11-15T07:16:06.530Z,12.68
2022-11-15T07:18:36.054Z,11.15
2022-11-15T07:21:06.692Z,11.93
2022-11-15T07:23:34.093Z,12.45
2022-11-15T07:26:00.718Z,10.05
2022-11-15T07:28:28.065Z,9.07
2022-11-15T07:30:54.691Z,9.73
2022-11-15T07:33:21.035Z,8.40
2022-11-15T07:35:50.552Z,8.30
2022-11-15T07:38:21.372Z,8.30
2022-11-15T07:40:48.525Z,9.82
2022-11-15T07:43:14.987Z,11.30
2022-11-15T07:45:43.647Z,9.07
2022-11-15T07:48:10.583Z,9.57
2022-11-15T07:50:36.909Z,10.52
2022-11-15T07:53:03.292Z,9.02
2022-11-15T07:55:30.610Z,10.82
2022-11-15T07:58:04.694Z,8.75
2022-11-15T08:00:31.952Z,9.32
2022-11-15T08:03:10.581Z,7.43
2022-11-15T08:05:38.160Z,8.30
2022-11-15T08:08:05.443Z,7.20
2022-11-15T08:10:34.230Z,10.25
2022-11-15T08:13:06.711Z,10.95
2022-11-15T08:15:33.837Z,7.28
2022-11-15T08:18:04.616Z,10.93
2022-11-15T08:20:31.628Z,9.90
2022-11-15T08:22:59.000Z,8.40
2022-11-15T08:25:29.478Z,9.23
2022-11-15T08:27:57.987Z,7.60
2022-11-15T08:30:27.766Z,8.50
2022-11-15T08:32:54.687Z,7.05
2022-11-15T08:35:27.677Z,8.45
2022-11-15T08:37:55.608Z,8.50
2022-11-15T08:40:22.005Z,6.65
2022-11-15T08:42:48.457Z,8.40
2022-11-15T08:45:15.415Z,7.72
2022-11-15T08:47:41.748Z,7.47
2022-11-15T08:50:08.591Z,7.63
2022-11-15T08:52:35.054Z,10.80
2022-11-15T08:55:01.428Z,6.57
2022-11-15T08:57:31.245Z,7.78
2022-11-15T08:59:58.102Z,8.73
2022-11-15T09:02:24.551Z,7.40
2022-11-15T09:04:50.899Z,9.02
2022-11-15T09:07:17.436Z,9.35
2022-11-15T09:09:43.918Z,6.65
2022-11-15T09:12:10.530Z,8.23
2022-11-15T09:14:36.922Z,7.55
2022-11-15T09:17:04.047Z,11.70
2022-11-15T09:19:30.441Z,7.53
2022-11-15T09:21:56.789Z,6.28
2022-11-15T09:24:23.417Z,8.30
2022-11-15T09:26:52.172Z,6.43
2022-11-15T09:29:19.671Z,7.55
2022-11-15T09:31:46.063Z,6.03
2022-11-15T09:34:12.867Z,5.05
2022-11-15T09:36:39.278Z,5.75
2022-11-15T09:39:05.634Z,5.35
2022-11-15T09:41:47.447Z,6.65
2022-11-15T09:44:29.264Z,5.55
2022-11-15T09:47:10.062Z,3.95
2022-11-15T09:49:36.594Z,3.92
2022-11-15T09:52:03.685Z,3.72
2022-11-15T09:54:52.609Z,3.20
2022-11-15T09:57:32.236Z,2.10
2022-11-15T10:03:16.457Z,2.85
2022-11-15T10:05:51.593Z,4.95
2022-11-15T10:08:36.899Z,1.83
2022-11-15T10:11:36.051Z,2.10
2022-11-15T10:14:05.291Z,2.00
2022-11-15T10:16:46.806Z,2.72
2022-11-15T10:19:25.433Z,1.70
2022-11-15T10:22:05.719Z,2.47
2022-11-15T10:24:38.023Z,3.13
2022-11-15T10:27:14.303Z,2.60
2022-11-15T10:29:45.998Z,1.77
2022-11-15T10:32:14.579Z,1.90
2022-11-15T10:34:41.644Z,1.80
2022-11-15T10:37:08.213Z,3.22
2022-11-15T10:39:35.022Z,1.23
2022-11-15T10:42:28.933Z,2.92
2022-11-15T10:44:55.761Z,2.05
2022-11-15T10:47:37.766Z,1.90
2022-11-15T10:50:28.323Z,1.95
2022-11-15T10:52:55.081Z,1.65
2022-11-15T10:55:26.190Z,1.55
2022-11-15T10:57:55.452Z,1.77
2022-11-15T11:00:22.052Z,1.98
2022-11-15T11:03:07.920Z,2.15
2022-11-15T11:05:42.276Z,1.88
2022-11-15T11:08:15.459Z,3.00
2022-11-15T11:11:02.103Z,1.67
2022-11-15T11:13:31.161Z,1.77
2022-11-15T11:16:15.881Z,1.67
2022-11-15T11:19:16.521Z,1.98
2022-11-15T11:22:20.993Z,1.95
2022-11-15T11:24:53.085Z,1.98
2022-11-15T11:27:41.303Z,1.00
2022-11-15T11:30:10.810Z,1.05
2022-11-15T11:32:54.847Z,3.13
2022-11-15T11:35:46.260Z,3.38
2022-11-15T11:38:16.136Z,2.92
2022-11-15T11:41:16.894Z,2.47
2022-11-15T11:44:04.804Z,3.38
2022-11-15T11:46:50.507Z,2.67
2022-11-15T11:49:24.368Z,3.50
2022-11-15T11:52:08.701Z,2.35
2022-11-15T11:54:53.705Z,0.70
2022-11-15T11:57:41.241Z,1.52
2022-11-15T12:00:19.668Z,1.75
2022-11-15T12:02:55.455Z,4.25
2022-11-15T12:05:42.741Z,1.58
2022-11-15T12:08:31.835Z,1.77
2022-11-15T12:11:18.247Z,1.80
2022-11-15T12:13:47.821Z,1.48
2022-11-15T12:16:19.906Z,1.27
2022-11-15T12:18:51.731Z,3.13
2022-11-15T12:21:35.757Z,1.73
2022-11-15T12:24:18.810Z,1.75
2022-11-15T12:27:01.305Z,2.00
2022-11-15T12:29:45.842Z,3.55
2022-11-15T12:32:25.093Z,0.73
2022-11-15T12:34:53.113Z,1.30
2022-11-15T12:37:50.066Z,2.35
2022-11-15T12:42:59.649Z,3.70
2022-11-15T12:45:32.524Z,1.60
2022-11-15T12:48:17.304Z,1.02
2022-11-15T12:50:55.897Z,1.33
2022-11-15T12:53:28.664Z,0.90
2022-11-15T12:56:04.268Z,2.38
2022-11-15T12:58:58.165Z,1.50
2022-11-15T13:01:36.869Z,1.02
2022-11-15T13:04:25.344Z,1.42
2022-11-15T13:06:54.079Z,0.82
2022-11-15T13:09:38.337Z,2.83
2022-11-15T13:12:13.526Z,2.55
2022-11-15T13:14:44.449Z,1.98
2022-11-15T13:17:18.136Z,1.75
2022-11-15T13:19:47.413Z,2.63
2022-11-15T13:22:32.330Z,1.50
2022-11-15T13:25:01.643Z,1.23
2022-11-15T13:27:28.285Z,2.10
2022-11-15T13:29:54.748Z,2.58
2022-11-15T13:32:22.175Z,1.08
2022-11-15T13:34:53.577Z,1.52
2022-11-15T13:37:22.974Z,1.38
2022-11-15T13:39:50.232Z,1.42
2022-11-15T13:42:21.290Z,2.88
2022-11-15T13:45:02.497Z,3.13
2022-11-15T13:47:30.642Z,3.22
2022-11-15T13:50:01.878Z,1.80
2022-11-15T13:52:34.847Z,1.73
2022-11-15T13:55:09.280Z,1.52
2022-11-15T13:57:44.478Z,1.85
2022-11-15T14:00:29.327Z,0.90
2022-11-15T14:02:57.515Z,1.85
2022-11-15T14:05:26.787Z,2.30
2022-11-15T14:08:03.449Z,2.60
2022-11-15T14:10:38.329Z,2.78
2022-11-15T14:13:11.602Z,1.95
2022-11-15T14:15:39.692Z,1.35
2022-11-15T14:18:06.947Z,1.20
2022-11-15T14:20:37.959Z,1.42
2022-11-15T14:23:40.045Z,1.30
2022-11-15T14:26:11.898Z,2.45
2022-11-15T14:28:41.190Z,2.67
2022-11-15T14:31:14.091Z,1.98
2022-11-15T14:33:41.034Z,1.60
2022-11-15T14:36:16.272Z,1.88
2022-11-15T14:38:43.858Z,2.63
2022-11-15T14:41:27.273Z,4.82
2022-11-15T14:43:54.233Z,4.47
2022-11-15T14:46:20.757Z,3.78
2022-11-15T14:48:47.170Z,2.78
2022-11-15T14:51:16.498Z,6.25
2022-11-15T14:53:43.995Z,2.38
2022-11-15T14:56:11.386Z,2.92
2022-11-15T14:58:37.778Z,4.53
2022-11-15T15:01:13.756Z,5.25
2022-11-15T15:06:06.577Z,1.63
2022-11-15T15:08:33.143Z,2.25
2022-11-15T15:10:59.798Z,2.20
2022-11-15T15:13:26.208Z,2.80
2022-11-15T15:15:53.231Z,2.88
2022-11-15T15:18:20.858Z,1.90
2022-11-15T15:20:55.102Z,2.78
2022-11-15T15:23:21.832Z,2.50
2022-11-15T15:25:50.285Z,3.10
2022-11-15T15:28:16.925Z,2.78
2022-11-15T15:30:43.260Z,4.38
2022-11-15T15:33:09.622Z,7.28
2022-11-15T15:35:37.490Z,3.75
2022-11-15T15:38:05.912Z,3.85
2022-11-15T15:40:34.181Z,3.20
2022-11-15T15:43:01.341Z,3.33
2022-11-15T15:45:28.560Z,3.67
2022-11-15T15:47:54.978Z,3.83
2022-11-15T15:50:29.838Z,4.38
2022-11-15T15:52:59.106Z,4.57
2022-11-15T15:55:26.194Z,3.38
2022-11-15T15:57:53.304Z,4.35
2022-11-15T16:00:21.367Z,3.13
2022-11-15T16:02:47.940Z,2.90
2022-11-15T16:05:14.369Z,3.30
2022-11-15T16:07:41.445Z,6.30
2022-11-15T16:10:29.155Z,5.57
2022-11-15T16:12:56.932Z,3.15
2022-11-15T16:15:25.666Z,4.50
2022-11-15T16:17:56.984Z,4.97
2022-11-15T16:20:35.429Z,2.65
2022-11-15T16:23:08.707Z,4.07
2022-11-15T16:25:40.731Z,2.47
2022-11-15T16:28:25.415Z,3.65
2022-11-15T16:31:04.297Z,3.30
2022-11-15T16:33:31.339Z,2.42
2022-11-15T16:35:58.297Z,2.90
2022-11-15T16:38:26.762Z,4.95
2022-11-15T16:40:53.256Z,2.63
2022-11-15T16:43:19.644Z,4.80
2022-11-15T16:45:46.193Z,3.38
2022-11-15T16:48:27.162Z,3.83
2022-11-15T16:50:58.768Z,2.70
2022-11-15T16:53:26.228Z,4.18
2022-11-15T16:55:52.693Z,4.93
2022-11-15T16:58:19.032Z,2.55
2022-11-15T17:00:46.158Z,4.80
2022-11-15T17:03:12.663Z,4.03
2022-11-15T17:05:39.045Z,3.95
2022-11-15T17:08:06.430Z,4.97
2022-11-15T17:10:32.790Z,6.18
2022-11-15T17:12:59.137Z,4.03
2022-11-15T17:15:25.571Z,3.78
2022-11-15T17:17:53.852Z,3.70
2022-11-15T17:20:22.647Z,4.07
2022-11-15T17:22:48.994Z,2.45
2022-11-15T17:25:15.482Z,3.38
2022-11-15T17:27:42.318Z,3.15
2022-11-15T17:30:19.968Z,4.28
2022-11-15T17:32:47.801Z,5.13
2022-11-15T17:35:15.853Z,4.13
2022-11-15T17:37:42.574Z,4.28
2022-11-15T17:40:09.608Z,3.75
2022-11-15T17:42:35.976Z,5.07
2022-11-15T17:45:08.185Z,3.67
2022-11-15T17:47:36.369Z,3.60
2022-11-15T17:50:02.947Z,3.53
2022-11-15T17:52:29.297Z,3.15
2022-11-15T17:54:55.630Z,3.30
2022-11-15T17:57:21.969Z,6.10
2022-11-15T18:00:01.076Z,7.38
2022-11-15T18:02:27.400Z,5.50
2022-11-15T18:04:53.883Z,4.95
2022-11-15T18:07:20.260Z,3.63
2022-11-15T18:09:46.674Z,5.53
2022-11-15T18:12:13.260Z,3.58
2022-11-15T18:14:39.655Z,4.97
2022-11-15T18:17:06.000Z,5.80
2022-11-15T18:19:32.528Z,5.32
2022-11-15T18:22:00.743Z,5.43
2022-11-15T18:24:29.925Z,3.58
2022-11-15T18:26:57.821Z,4.13
2022-11-15T18:29:24.892Z,6.28
2022-11-15T18:31:55.449Z,5.15
2022-11-15T18:34:28.738Z,5.20
2022-11-15T18:36:55.065Z,4.25
2022-11-15T18:39:21.412Z,4.28
2022-11-15T18:41:48.636Z,7.53
2022-11-15T18:44:15.757Z,4.28
2022-11-15T18:46:44.815Z,5.90
2022-11-15T18:49:13.100Z,4.18
2022-11-15T18:51:42.895Z,3.47
2022-11-15T18:54:11.772Z,4.80
2022-11-15T18:56:39.005Z,5.60
2022-11-15T18:59:06.375Z,5.43
2022-11-15T19:01:38.184Z,5.25
2022-11-15T19:04:22.153Z,4.53
2022-11-15T19:06:50.225Z,5.13
2022-11-15T19:09:18.825Z,4.30
2022-11-15T19:11:47.242Z,5.03
2022-11-15T19:14:16.351Z,4.50
2022-11-15T19:16:45.059Z,4.00
2022-11-15T19:19:19.880Z,4.65
2022-11-15T19:21:46.750Z,4.60
2022-11-15T19:24:13.448Z,4.65
2022-11-15T19:26:40.250Z,5.65
2022-11-15T19:29:08.031Z,4.47
2022-11-15T19:31:34.472Z,6.55
2022-11-15T19:34:04.470Z,3.70
2022-11-15T19:36:33.368Z,4.70
2022-11-15T19:39:05.153Z,3.20
2022-11-15T19:41:31.900Z,3.65
2022-11-15T19:43:58.259Z,11.40
2022-11-15T19:46:25.033Z,3.72
2022-11-15T19:48:51.749Z,3.85
2022-11-15T19:51:21.905Z,4.03
2022-11-15T19:53:49.675Z,5.93
2022-11-15T19:56:18.413Z,3.80
2022-11-15T19:58:45.743Z,5.18
2022-11-15T20:01:19.765Z,5.90
2022-11-15T20:03:47.724Z,7.47
2022-11-15T20:06:16.535Z,5.00
2022-11-15T20:08:43.804Z,4.35
2022-11-15T20:11:11.047Z,3.17
2022-11-15T20:13:37.478Z,4.40
2022-11-15T20:16:04.616Z,4.78
2022-11-15T20:18:31.317Z,4.03
2022-11-15T20:20:59.036Z,3.30
2022-11-15T20:23:26.838Z,3.60
2022-11-15T20:25:53.999Z,3.50
2022-11-15T20:28:23.409Z,4.65
2022-11-15T20:30:53.206Z,3.88
2022-11-15T20:33:20.509Z,4.57
2022-11-15T20:35:46.911Z,3.63
2022-11-15T20:38:13.310Z,4.18
2022-11-15T20:40:40.690Z,3.92
2022-11-15T20:43:11.219Z,7.55
2022-11-15T20:45:38.489Z,3.90
2022-11-15T20:48:05.282Z,4.10
2022-11-15T20:50:46.394Z,4.38
2022-11-15T20:53:15.337Z,3.95
2022-11-15T20:55:44.001Z,4.97
2022-11-15T20:58:11.223Z,5.43
2022-11-15T21:00:37.938Z,4.38
2022-11-15T21:03:08.145Z,4.47
2022-11-15T21:05:37.355Z,4.82
2022-11-15T21:08:03.907Z,4.07
2022-11-15T21:10:49.276Z,4.47
2022-11-15T21:13:15.664Z,4.22
2022-11-15T21:15:42.049Z,3.78
2022-11-15T21:18:08.596Z,4.07
2022-11-15T21:20:43.935Z,5.15
2022-11-15T21:23:11.589Z,3.63
2022-11-15T21:25:37.956Z,4.57
2022-11-15T21:28:04.506Z,4.18
2022-11-15T21:30:30.942Z,4.70
2022-11-15T21:32:57.434Z,4.43
2022-11-15T21:35:24.121Z,4.40
2022-11-15T21:37:56.525Z,5.50
2022-11-15T21:40:24.393Z,4.18
2022-11-15T21:42:50.785Z,4.85
2022-11-15T21:45:17.237Z,5.00
2022-11-15T21:47:46.456Z,3.67
2022-11-15T21:50:13.704Z,4.22
2022-11-15T21:52:40.574Z,3.38
2022-11-15T21:55:07.575Z,3.65
2022-11-15T21:57:34.090Z,3.40
2022-11-15T22:00:19.221Z,3.80
2022-11-15T22:02:45.696Z,3.35
2022-11-15T22:05:12.068Z,5.93
2022-11-15T22:07:38.532Z,3.92
2022-11-15T22:10:05.691Z,3.40
2022-11-15T22:12:32.040Z,3.88
2022-11-15T22:14:58.433Z,3.53
2022-11-15T22:17:44.929Z,3.40
2022-11-15T22:22:58.806Z,5.63
2022-11-15T22:25:26.300Z,2.55
2022-11-15T22:27:53.503Z,2.97
2022-11-15T22:30:20.597Z,4.05
2022-11-15T22:32:47.452Z,3.13
2022-11-15T22:35:14.269Z,3.28
2022-11-15T22:37:41.122Z,3.53
2022-11-15T22:40:08.453Z,4.22
2022-11-15T22:42:34.889Z,4.03
2022-11-15T22:45:01.238Z,3.42
2022-11-15T22:47:27.643Z,4.15
2022-11-15T22:49:54.113Z,3.58
2022-11-15T22:52:20.515Z,3.00
2022-11-15T22:54:46.902Z,3.45
2022-11-15T22:57:13.273Z,3.33
2022-11-15T22:59:41.036Z,2.95
2022-11-15T23:02:07.381Z,4.60
2022-11-15T23:04:33.875Z,3.38
2022-11-15T23:07:00.255Z,3.40
2022-11-15T23:09:26.705Z,2.58
2022-11-15T23:12:12.075Z,3.55
2022-11-15T23:14:38.472Z,2.15
2022-11-15T23:17:04.843Z,2.75
2022-11-15T23:19:31.337Z,3.05
2022-11-15T23:22:16.349Z,4.22
2022-11-15T23:24:42.744Z,3.20
2022-11-15T23:27:09.201Z,2.85
2022-11-15T23:29:56.722Z,2.20
2022-11-15T23:32:41.875Z,2.13
2022-11-15T23:35:08.501Z,3.17
2022-11-15T23:37:35.427Z,3.15
2022-11-15T23:40:01.880Z,3.38
2022-11-15T23:42:28.274Z,2.65
2022-11-15T23:44:54.661Z,4.10
2022-11-15T23:47:21.168Z,2.97
2022-11-15T23:49:47.558Z,2.33
2022-11-15T23:52:15.489Z,3.70
2022-11-15T23:54:42.179Z,4.63
2022-11-15T23:57:11.820Z,3.15
2022-11-15T23:59:44.773Z,4.53
